Time;durP1;ratioP1;P1;durP2;ratioP2;P2;SDS_P1;SDS_P2;PMS_P1;PMS_P2;Temp;Humidity;BMP_temperature;BMP_pressure;BME280_temperature;BME280_humidity;BME280_pressure;Samples;Min_cycle;Max_cycle;Signal;HPM_P1;HPM_P2
2021/07/26 00:00:49;;;;;;;;;;;18.10;99.90;;;17.20;100.00;95347.69;10428337;28;1933;-84
2021/07/26 00:05:52;;;;;;;;;;;18.20;99.90;;;17.12;100.00;95341.16;10416684;28;2160;-84
2021/07/26 00:11:09;;;;;;;;;;;18.20;99.90;;;17.10;100.00;95348.81;10418466;28;1593;-84
2021/07/26 00:16:12;;;;;;;;;;;18.10;99.90;;;16.99;100.00;95353.03;10421657;28;2310;-83
2021/07/26 00:21:14;;;;;;;;;;;18.00;99.90;;;16.96;100.00;95340.09;10420505;28;2356;-82
2021/07/26 00:26:17;;;;;;;;;;;17.90;99.90;;;16.99;100.00;95353.03;10408057;28;2216;-83
2021/07/26 00:31:20;;;;;;;;;;;17.90;99.90;;;17.06;100.00;95349.81;10417608;28;2183;-83
2021/07/26 00:36:23;;;;;;;;;;;18.00;99.90;;;16.98;100.00;95357.66;10415237;28;2708;-85
2021/07/26 00:41:26;;;;;;;;;;;18.00;99.90;;;17.10;100.00;95358.91;10425696;28;1916;-83
2021/07/26 00:46:29;;;;;;;;;;;18.00;99.90;;;17.12;100.00;95354.75;10426958;28;2034;-82
2021/07/26 00:51:31;;;;;;;;;;;18.00;99.90;;;17.21;100.00;95343.84;10422131;28;2483;-84
2021/07/26 00:56:34;;;;;;;;;;;18.10;99.90;;;17.21;100.00;95339.19;10419559;28;2179;-85
2021/07/26 01:01:37;;;;;;;;;;;18.10;99.90;;;17.23;100.00;95347.03;10425557;28;2440;-83
2021/07/26 01:06:40;;;;;;;;;;;18.20;99.90;;;17.31;100.00;95342.69;10418789;28;2471;-83
2021/07/26 01:11:43;;;;;;;;;;;18.20;99.90;;;17.33;100.00;95337.72;10396339;28;2589;-80
2021/07/26 01:16:46;;;;;;;;;;;18.20;99.90;;;17.35;100.00;95328.13;10411200;28;2059;-83
2021/07/26 01:21:49;;;;;;;;;;;18.20;99.90;;;17.35;100.00;95340.91;10426574;28;2604;-82
2021/07/26 01:26:51;;;;;;;;;;;18.20;99.90;;;17.46;100.00;95350.28;10420781;28;2313;-81
2021/07/26 01:31:54;;;;;;;;;;;18.30;99.90;;;17.52;100.00;95352.50;10408687;28;2166;-82
2021/07/26 01:36:57;;;;;;;;;;;18.40;99.90;;;17.60;100.00;95353.56;10409915;28;2342;-83
2021/07/26 01:42:00;;;;;;;;;;;18.50;99.90;;;17.58;100.00;95339.50;10429841;28;1250;-84
2021/07/26 01:47:03;;;;;;;;;;;18.50;99.90;;;17.46;100.00;95332.06;10422223;28;2117;-83
2021/07/26 01:52:06;;;;;;;;;;;18.40;99.90;;;17.43;100.00;95343.59;10426049;28;2224;-83
2021/07/26 01:57:15;;;;;;;;;;;18.40;99.90;;;17.41;100.00;95332.25;10430081;28;2294;-84
2021/07/26 02:02:18;;;;;;;;;;;18.30;99.90;;;17.45;100.00;95343.25;10431473;28;2344;-81
2021/07/26 02:07:21;;;;;;;;;;;18.30;99.90;;;17.51;100.00;95336.53;10443655;28;1962;-81
2021/07/26 02:12:24;;;;;;;;;;;18.40;99.90;;;17.47;100.00;95325.50;10442237;28;2156;-83
2021/07/26 02:17:27;;;;;;;;;;;18.40;99.90;;;17.44;100.00;95319.94;10433349;28;2207;-83
2021/07/26 02:22:30;;;;;;;;;;;18.40;99.90;;;17.35;100.00;95324.59;10427845;28;1901;-83
2021/07/26 02:27:33;;;;;;;;;;;18.40;99.90;;;17.24;100.00;95316.84;10438670;28;1895;-81
2021/07/26 02:32:35;;;;;;;;;;;18.30;99.90;;;17.23;100.00;95317.94;10446350;28;2329;-83
2021/07/26 02:37:38;;;;;;;;;;;18.20;99.90;;;17.28;100.00;95325.91;10452355;28;2473;-84
2021/07/26 02:42:41;;;;;;;;;;;18.20;99.90;;;17.26;100.00;95336.31;10456022;28;1618;-83
2021/07/26 02:47:44;;;;;;;;;;;18.20;99.90;;;17.24;100.00;95333.13;10464800;28;1987;-83
2021/07/26 02:52:46;;;;;;;;;;;18.20;99.90;;;17.31;100.00;95335.34;10458846;28;2773;-84
2021/07/26 02:57:53;;;;;;;;;;;18.20;99.90;;;17.28;100.00;95350.34;10445397;28;1988;-85
2021/07/26 03:02:56;;;;;;;;;;;18.20;99.90;;;17.36;100.00;95356.06;10439817;28;2279;-83
2021/07/26 03:07:59;;;;;;;;;;;18.30;99.90;;;17.52;100.00;95363.34;10441618;28;2243;-83
2021/07/26 03:13:02;;;;;;;;;;;18.30;99.90;;;17.48;99.61;95369.75;10447303;28;1956;-82
2021/07/26 03:18:04;;;;;;;;;;;18.40;99.90;;;17.49;98.93;95372.16;10431924;28;2282;-84
2021/07/26 03:23:13;;;;;;;;;;;18.40;99.90;;;17.50;99.76;95370.25;10435113;28;2453;-82
2021/07/26 03:28:16;;;;;;;;;;;18.40;99.90;;;17.56;98.60;95377.09;10435817;28;2254;-83
2021/07/26 03:33:19;;;;;;;;;;;18.40;99.90;;;17.59;97.67;95371.00;10442874;28;1937;-84
2021/07/26 03:38:21;;;;;;;;;;;18.40;99.90;;;17.55;96.49;95378.19;10430566;28;2407;-84
2021/07/26 03:43:24;;;;;;;;;;;18.40;99.90;;;17.40;97.86;95386.91;10412919;28;2368;-83
2021/07/26 03:48:27;;;;;;;;;;;18.40;99.90;;;17.39;97.90;95383.41;10427564;28;2459;-82
2021/07/26 03:53:30;;;;;;;;;;;18.30;99.90;;;17.35;98.97;95382.44;10429425;28;1896;-81
2021/07/26 03:58:33;;;;;;;;;;;18.20;99.90;;;17.30;99.26;95369.03;10435570;28;2298;-83
2021/07/26 04:03:35;;;;;;;;;;;18.20;99.90;;;17.26;99.22;95368.91;10431359;28;2247;-82
2021/07/26 04:08:41;;;;;;;;;;;18.20;99.90;;;17.35;99.28;95371.56;10433116;28;2110;-83
2021/07/26 04:13:44;;;;;;;;;;;18.20;99.90;;;17.49;98.78;95372.16;10428957;28;2242;-83
2021/07/26 04:19:12;;;;;;;;;;;18.30;99.90;;;17.67;97.79;95378.28;10425022;28;2253;-82
2021/07/26 04:24:15;;;;;;;;;;;18.40;99.90;;;17.88;96.02;95374.84;10434926;28;2314;-84
2021/07/26 04:29:19;;;;;;;;;;;18.60;99.90;;;17.98;94.80;95361.66;10434130;28;1959;-83
2021/07/26 04:34:21;;;;;;;;;;;18.70;99.90;;;18.01;94.86;95366.47;10428613;28;2428;-84
2021/07/26 04:39:24;;;;;;;;;;;18.80;99.90;;;18.15;94.41;95373.56;10427340;28;2367;-84
2021/07/26 04:44:27;;;;;;;;;;;18.90;99.90;;;18.22;92.94;95382.78;10435446;28;2199;-83
2021/07/26 04:49:30;;;;;;;;;;;19.00;99.90;;;18.27;92.39;95390.75;10436515;28;1973;-82
2021/07/26 04:54:33;;;;;;;;;;;19.10;99.90;;;18.18;93.83;95387.28;10444749;28;1236;-83
2021/07/26 04:59:36;;;;;;;;;;;19.10;99.90;;;18.37;93.40;95395.78;10450160;28;1748;-83
2021/07/26 05:04:39;;;;;;;;;;;19.10;99.90;;;18.33;93.45;95405.75;10445249;28;2394;-84
2021/07/26 05:09:41;;;;;;;;;;;19.20;99.90;;;18.39;93.08;95402.84;10441668;28;2381;-83
2021/07/26 05:14:44;;;;;;;;;;;19.20;99.90;;;18.52;91.61;95412.66;10424984;28;2003;-82
2021/07/26 05:19:47;;;;;;;;;;;19.30;99.90;;;18.70;90.97;95422.28;10441705;28;2206;-83
2021/07/26 05:24:51;;;;;;;;;;;19.40;99.90;;;19.01;90.41;95427.28;10416703;28;2333;-82
2021/07/26 05:29:54;;;;;;;;;;;19.60;99.90;;;19.25;87.36;95421.13;10430093;28;2319;-84
2021/07/26 05:34:56;;;;;;;;;;;19.80;99.90;;;19.47;86.14;95427.28;10427023;28;2298;-83
2021/07/26 05:39:59;;;;;;;;;;;20.00;99.90;;;19.46;82.95;95418.31;10418194;28;2365;-85
2021/07/26 05:45:04;;;;;;;;;;;20.10;99.90;;;19.38;83.16;95413.75;10412389;28;2221;-83
2021/07/26 05:50:07;;;;;;;;;;;20.20;99.90;;;19.79;82.62;95403.84;10445293;28;2068;-83
2021/07/26 05:55:09;;;;;;;;;;;20.30;99.90;;;20.03;80.61;95408.47;10433857;28;2325;-84
2021/07/26 06:00:35;;;;;;;;;;;20.60;99.90;;;20.28;78.74;95412.75;10445127;28;1869;-85
2021/07/26 06:05:38;;;;;;;;;;;20.80;99.90;;;20.30;78.03;95418.69;10420182;28;2430;-83
2021/07/26 06:10:41;;;;;;;;;;;21.00;99.90;;;20.45;77.51;95420.72;10421061;28;2319;-83
2021/07/26 06:15:44;;;;;;;;;;;21.10;99.90;;;20.18;78.65;95396.88;10428787;28;1637;-80
2021/07/26 06:20:47;;;;;;;;;;;21.10;99.90;;;20.17;78.33;95392.56;10419822;28;1904;-82
2021/07/26 06:25:49;;;;;;;;;;;21.00;99.90;;;20.34;77.13;95392.25;10425941;28;2063;-82
2021/07/26 06:30:53;;;;;;;;;;;21.00;99.90;;;20.50;76.11;95390.44;10422772;28;2302;-81
2021/07/26 06:35:58;;;;;;;;;;;21.10;99.90;;;20.83;75.70;95392.13;10425072;28;2289;-84
2021/07/26 06:41:07;;;;;;;;;;;21.30;99.90;;;21.36;74.15;95394.72;10412422;28;2071;-84
2021/07/26 06:46:10;;;;;;;;;;;21.70;99.90;;;21.50;73.70;95404.09;10415948;28;2273;-83
2021/07/26 06:51:18;;;;;;;;;;;22.00;99.90;;;22.03;71.29;95417.50;10432238;28;2290;-85
2021/07/26 06:56:38;;;;;;;;;;;22.40;99.90;;;22.52;69.52;95434.28;10443614;28;1864;-84
2021/07/26 07:02:14;;;;;;;;;;;22.90;99.90;;;23.51;64.78;95431.94;10425124;28;1892;-85
2021/07/26 07:07:24;;;;;;;;;;;23.60;99.90;;;23.45;63.49;95439.69;10441079;28;2288;-84
2021/07/26 07:12:33;;;;;;;;;;;24.00;99.90;;;23.72;62.26;95431.56;10457129;28;2259;-84
2021/07/26 07:23:28;;;;;;;;;;;24.00;99.90;;;23.00;62.79;95418.47;10424507;28;1847;-85
2021/07/26 07:28:31;;;;;;;;;;;23.60;99.90;;;22.85;62.23;95416.56;10419377;28;2347;-85
2021/07/26 07:33:34;;;;;;;;;;;23.60;99.90;;;22.71;63.33;95403.34;10430652;28;1896;-83
2021/07/26 07:38:37;;;;;;;;;;;23.50;99.90;;;22.75;64.00;95408.91;10418286;28;2397;-85
2021/07/26 07:43:40;;;;;;;;;;;23.50;99.90;;;22.98;61.76;95414.50;10420428;28;2004;-84
2021/07/26 07:48:43;;;;;;;;;;;23.60;99.90;;;23.31;61.79;95420.22;10425390;28;2348;-82
2021/07/26 07:53:46;;;;;;;;;;;23.70;99.90;;;23.64;59.89;95408.69;10418785;28;2295;-86
2021/07/26 07:58:54;;;;;;;;;;;24.10;99.90;;;23.60;59.63;95404.25;10430333;28;2342;-84
2021/07/26 08:03:58;;;;;;;;;;;24.20;99.90;;;23.59;60.09;95394.44;10416852;28;2134;-85
2021/07/26 08:09:04;;;;;;;;;;;24.40;99.90;;;23.70;60.08;95407.22;10434188;28;1960;-85
2021/07/26 08:14:08;;;;;;;;;;;24.30;99.90;;;24.00;58.04;95398.31;10434182;28;2388;-85
2021/07/26 08:19:11;;;;;;;;;;;24.50;99.90;;;23.83;57.83;95380.38;10464173;28;1582;-85
2021/07/26 08:24:17;;;;;;;;;;;24.50;99.90;;;23.86;58.53;95387.09;10434071;28;2230;-86
2021/07/26 08:29:33;;;;;;;;;;;24.40;99.90;;;23.89;60.38;95381.66;10434246;28;2364;-86
2021/07/26 08:34:47;;;;;;;;;;;24.50;99.90;;;23.24;60.39;95383.66;10441899;28;1890;-83
2021/07/26 08:39:51;;;;;;;;;;;24.40;99.90;;;24.73;55.65;95391.50;10457663;28;2382;-86
2021/07/26 08:44:55;;;;;;;;;;;24.90;99.90;;;24.58;57.04;95397.97;10437002;28;1506;-85
2021/07/26 08:50:11;;;;;;;;;;;25.20;99.90;;;24.93;55.58;95394.06;10459873;28;2353;-87
2021/07/26 08:55:31;;;;;;;;;;;25.50;99.90;;;25.33;54.72;95396.94;10453256;28;1265;-87
2021/07/26 09:00:40;;;;;;;;;;;25.80;99.90;;;24.00;59.15;95401.03;10451783;28;2675;-83
2021/07/26 09:05:54;;;;;;;;;;;25.50;99.90;;;24.73;57.03;95404.44;10454759;28;2003;-85
2021/07/26 09:11:25;;;;;;;;;;;25.20;99.90;;;24.94;55.97;95409.41;10428507;28;1930;-86
2021/07/26 09:22:23;;;;;;;;;;;26.00;99.90;;;25.94;54.82;95402.19;10456249;28;2084;-88
2021/07/26 09:27:37;;;;;;;;;;;26.40;99.90;;;24.47;57.59;95406.06;10453447;28;1895;-88
2021/07/26 09:38:22;;;;;;;;;;;25.40;99.90;;;24.56;56.07;95405.81;10406920;28;1945;-84
2021/07/26 09:43:50;;;;;;;;;;;25.10;99.90;;;25.98;52.93;95403.81;10431848;28;2396;-86
2021/07/26 09:49:20;;;;;;;;;;;25.90;99.90;;;25.40;53.24;95407.22;10432651;28;1933;-87
2021/07/26 10:00:02;;;;;;;;;;;25.70;99.90;;;24.21;57.85;95406.84;10426382;28;2275;-86
2021/07/26 10:05:27;;;;;;;;;;;25.30;99.90;;;24.05;58.26;95414.47;10423055;28;2329;-83
2021/07/26 10:10:56;;;;;;;;;;;25.00;99.90;;;24.43;55.50;95415.41;10415326;28;1957;-85
2021/07/26 10:16:01;;;;;;;;;;;25.30;99.90;;;24.65;56.28;95409.06;10420220;28;1987;-85
2021/07/26 10:21:04;;;;;;;;;;;25.70;99.90;;;25.88;52.66;95404.50;10421645;28;2250;-81
2021/07/26 10:26:07;;;;;;;;;;;26.10;99.90;;;26.13;50.32;95396.44;10432064;28;1897;-86
2021/07/26 10:31:14;;;;;;;;;;;26.60;99.90;;;25.21;52.04;95399.16;10430816;28;2223;-85
2021/07/26 10:36:17;;;;;;;;;;;26.40;99.90;;;25.93;50.23;95400.63;10417946;28;2345;-86
2021/07/26 10:41:20;;;;;;;;;;;26.30;99.90;;;26.11;50.70;95407.06;10433544;28;2112;-86
2021/07/26 10:46:26;;;;;;;;;;;26.70;99.90;;;25.56;51.10;95410.50;10436944;28;2008;-82
2021/07/26 10:51:30;;;;;;;;;;;26.60;99.90;;;25.44;51.33;95408.00;10417135;28;2296;-84
2021/07/26 10:56:33;;;;;;;;;;;26.30;99.90;;;25.20;51.59;95409.38;10434439;28;2430;-86
2021/07/26 11:01:36;;;;;;;;;;;26.10;99.90;;;25.28;51.92;95405.50;10441036;28;2061;-84
2021/07/26 11:06:42;;;;;;;;;;;26.00;99.90;;;27.24;47.63;95400.59;10452542;28;2276;-86
2021/07/26 11:11:48;;;;;;;;;;;27.60;99.90;;;27.88;46.19;95392.44;10434457;28;2327;-87
2021/07/26 11:16:52;;;;;;;;;;;29.60;99.90;;;27.38;44.60;95403.41;10428961;28;2214;-83
2021/07/26 11:21:56;;;;;;;;;;;30.10;99.90;;;26.84;45.51;95394.13;10456040;28;1981;-85
2021/07/26 11:27:00;;;;;;;;;;;30.00;99.90;;;25.82;48.85;95390.31;10454509;28;1891;-85
2021/07/26 11:32:03;;;;;;;;;;;27.80;99.90;;;25.38;50.77;95392.22;10446377;28;2274;-82
2021/07/26 11:37:08;;;;;;;;;;;26.60;99.90;;;24.62;53.14;95389.75;10463697;28;2353;-86
2021/07/26 11:42:12;;;;;;;;;;;25.90;99.90;;;24.39;53.68;95387.13;10434243;28;1343;-87
2021/07/26 11:47:16;;;;;;;;;;;25.50;99.90;;;24.70;52.65;95373.00;10442380;28;1955;-86
2021/07/26 11:52:30;;;;;;;;;;;25.50;99.90;;;25.18;50.66;95373.16;10424338;28;2335;-85
2021/07/26 11:57:33;;;;;;;;;;;26.00;99.90;;;25.14;50.75;95375.13;10428977;28;2135;-83
2021/07/26 12:02:40;;;;;;;;;;;26.10;99.90;;;24.96;50.67;95365.84;10426991;28;2433;-84
2021/07/26 12:07:43;;;;;;;;;;;26.10;99.90;;;25.60;51.46;95356.28;10428654;28;2197;-83
2021/07/26 12:12:55;;;;;;;;;;;26.30;99.90;;;25.49;50.07;95349.88;10431891;28;1882;-86
2021/07/26 12:18:20;;;;;;;;;;;26.50;99.90;;;25.73;49.42;95343.06;10436360;28;2361;-86
2021/07/26 12:23:24;;;;;;;;;;;26.70;99.90;;;26.19;49.26;95326.03;10441286;28;2270;-84
2021/07/26 12:28:27;;;;;;;;;;;27.10;99.90;;;25.58;50.21;95331.13;10423017;28;2395;-84
2021/07/26 12:33:33;;;;;;;;;;;26.80;99.90;;;25.40;50.32;95327.41;10427545;28;2144;-81
2021/07/26 12:38:37;;;;;;;;;;;26.40;99.90;;;25.49;49.49;95322.38;10416432;28;2441;-83
2021/07/26 12:43:44;;;;;;;;;;;26.60;99.90;;;25.38;50.56;95312.44;10410067;28;2385;-83
2021/07/26 12:48:47;;;;;;;;;;;26.30;99.90;;;26.10;48.74;95311.84;10399078;28;2405;-82
2021/07/26 12:53:51;;;;;;;;;;;26.60;99.90;;;25.63;48.29;95310.69;10415030;28;2401;-85
2021/07/26 13:04:13;;;;;;;;;;;26.30;99.90;;;26.02;45.64;95301.94;10417254;28;2369;-85
2021/07/26 13:09:29;;;;;;;;;;;26.50;99.90;;;26.36;43.19;95294.25;10416852;28;2677;-85
2021/07/26 13:14:32;;;;;;;;;;;27.10;99.90;;;26.58;45.66;95295.16;10430632;28;2081;-83
2021/07/26 13:19:36;;;;;;;;;;;27.40;99.90;;;26.22;47.16;95289.47;10435938;28;2457;-83
2021/07/26 13:24:40;;;;;;;;;;;27.40;99.90;;;26.53;46.02;95284.50;10425811;28;2271;-84
2021/07/26 13:29:47;;;;;;;;;;;27.40;99.90;;;27.03;43.38;95279.13;10412095;28;2362;-84
2021/07/26 13:34:59;;;;;;;;;;;27.70;99.90;;;27.27;42.76;95261.84;10427363;28;2274;-84
2021/07/26 13:40:01;;;;;;;;;;;28.20;99.90;;;27.27;43.75;95239.78;10393771;28;2640;-86
2021/07/26 13:45:14;;;;;;;;;;;28.10;99.90;;;26.70;44.17;95238.88;10425611;28;2141;-83
2021/07/26 13:50:17;;;;;;;;;;;28.00;99.90;;;26.98;43.27;95243.69;10421011;28;2006;-84
2021/07/26 13:55:20;;;;;;;;;;;27.80;99.90;;;26.82;44.78;95255.84;10427267;28;2263;-83
2021/07/26 14:00:24;;;;;;;;;;;27.90;99.90;;;26.78;44.39;95255.03;10422928;28;1647;-83
2021/07/26 14:05:27;;;;;;;;;;;27.80;99.90;;;26.72;45.26;95237.34;10421426;28;2230;-82
2021/07/26 14:10:30;;;;;;;;;;;27.70;99.90;;;25.87;46.67;95244.03;10414444;28;2238;-83
2021/07/26 14:15:33;;;;;;;;;;;27.30;99.90;;;25.70;46.85;95244.69;10402780;28;2053;-83
2021/07/26 14:20:40;;;;;;;;;;;26.90;99.90;;;26.14;45.10;95241.00;10398921;28;1998;-84
2021/07/26 14:25:43;;;;;;;;;;;26.80;99.90;;;26.27;44.50;95238.72;10427880;28;2276;-84
2021/07/26 14:30:55;;;;;;;;;;;27.00;99.90;;;26.62;44.13;95236.13;10425870;28;2203;-84
2021/07/26 14:36:00;;;;;;;;;;;27.20;99.90;;;26.47;43.10;95230.97;10431870;28;2346;-85
2021/07/26 14:41:03;;;;;;;;;;;27.30;99.90;;;26.72;42.92;95219.97;10431280;28;1987;-81
2021/07/26 14:46:06;;;;;;;;;;;27.40;99.90;;;26.73;42.87;95222.38;10445832;28;2424;-84
2021/07/26 14:51:09;;;;;;;;;;;27.50;99.90;;;26.52;42.63;95234.09;10434435;28;2330;-83
2021/07/26 14:56:13;;;;;;;;;;;27.40;99.90;;;26.63;43.46;95231.38;10440363;28;2174;-85
2021/07/26 15:01:22;;;;;;;;;;;27.30;99.90;;;26.34;44.03;95225.78;10425926;28;2476;-84
2021/07/26 15:06:25;;;;;;;;;;;27.20;99.90;;;25.85;47.07;95227.13;10423455;28;2322;-82
2021/07/26 15:11:29;;;;;;;;;;;26.90;99.90;;;26.22;46.67;95231.63;10455569;28;1974;-84
2021/07/26 15:16:32;;;;;;;;;;;27.00;99.90;;;25.54;47.33;95233.19;10459427;28;1300;-84
2021/07/26 15:21:35;;;;;;;;;;;26.60;99.90;;;25.41;47.86;95223.66;10454489;28;2086;-83
2021/07/26 15:26:38;;;;;;;;;;;26.40;99.90;;;25.50;47.52;95219.38;10454159;28;2615;-82
2021/07/26 15:31:41;;;;;;;;;;;26.30;99.90;;;25.95;47.02;95227.53;10446842;28;1958;-83
2021/07/26 15:36:45;;;;;;;;;;;26.60;99.90;;;25.45;47.35;95235.47;10446255;28;2239;-84
2021/07/26 15:41:48;;;;;;;;;;;26.70;99.90;;;25.59;47.97;95241.09;10439506;28;1980;-82
2021/07/26 15:46:51;;;;;;;;;;;26.50;99.90;;;25.56;48.35;95230.81;10463164;28;1917;-85
2021/07/26 15:51:57;;;;;;;;;;;26.40;99.90;;;25.43;48.19;95224.06;10468405;28;1887;-83
2021/07/26 15:57:03;;;;;;;;;;;26.40;99.90;;;25.65;46.93;95227.75;10457544;28;1550;-84
2021/07/26 16:02:07;;;;;;;;;;;26.40;99.90;;;25.79;46.90;95231.41;10440057;28;1654;-83
2021/07/26 16:07:10;;;;;;;;;;;26.60;99.90;;;25.43;47.53;95221.31;10438729;28;2165;-83
2021/07/26 16:12:13;;;;;;;;;;;26.50;99.90;;;25.03;49.05;95228.44;10431569;28;1972;-82
2021/07/26 16:17:17;;;;;;;;;;;26.10;99.90;;;24.59;51.04;95231.94;10447729;28;1678;-83
2021/07/26 16:22:20;;;;;;;;;;;25.80;99.90;;;24.42;51.30;95254.50;10455398;28;2131;-82
2021/07/26 16:27:26;;;;;;;;;;;25.50;99.90;;;24.18;52.76;95251.06;10456271;28;1586;-79
2021/07/26 16:32:29;;;;;;;;;;;25.20;99.90;;;24.09;52.61;95277.22;10452922;28;2277;-83
2021/07/26 16:37:32;;;;;;;;;;;25.10;99.90;;;23.98;51.99;95279.81;10449589;28;1453;-82
2021/07/26 16:42:35;;;;;;;;;;;25.00;99.90;;;23.81;53.43;95286.66;10448460;28;1806;-82
2021/07/26 16:47:38;;;;;;;;;;;24.80;99.90;;;23.71;54.30;95295.50;10437952;28;1693;-83
2021/07/26 16:52:43;;;;;;;;;;;24.70;99.90;;;23.66;56.06;95321.31;10442516;28;2270;-85
2021/07/26 16:57:46;;;;;;;;;;;24.60;99.90;;;23.42;57.55;95354.59;10448724;28;1812;-82
2021/07/26 17:02:49;;;;;;;;;;;24.50;99.90;;;23.08;59.07;95359.88;10472786;28;1878;-84
2021/07/26 17:07:53;;;;;;;;;;;24.30;99.90;;;22.65;60.72;95352.75;10459346;28;1870;-84
2021/07/26 17:12:56;;;;;;;;;;;23.90;99.90;;;22.00;71.79;95361.50;10452093;28;2236;-84
2021/07/26 17:17:59;;;;;;;;;;;23.40;99.90;;;20.96;81.20;95374.53;10436655;28;1462;-85
2021/07/26 17:23:02;;;;;;;;;;;22.70;99.90;;;20.23;89.96;95383.78;10437824;28;2269;-86
2021/07/26 17:28:05;;;;;;;;;;;21.80;99.90;;;19.76;97.74;95401.78;10449226;28;2447;-80
2021/07/26 17:33:07;;;;;;;;;;;21.10;99.90;;;19.63;100.00;95423.59;10444245;28;2283;-82
2021/07/26 17:38:11;;;;;;;;;;;20.60;99.90;;;19.33;100.00;95439.28;10443106;28;2205;-81
2021/07/26 17:43:14;;;;;;;;;;;20.40;99.90;;;19.07;100.00;95466.00;10436404;28;2301;-81
2021/07/26 17:48:17;;;;;;;;;;;20.00;99.90;;;18.85;100.00;95497.13;10430025;28;1905;-83
2021/07/26 17:53:20;;;;;;;;;;;19.80;99.90;;;18.70;100.00;95525.72;10434564;28;2299;-81
2021/07/26 17:58:23;;;;;;;;;;;19.60;99.90;;;18.56;100.00;95534.13;10427812;28;1573;-79
2021/07/26 18:03:25;;;;;;;;;;;19.50;99.90;;;17.99;100.00;95542.75;10426347;28;1304;-80
2021/07/26 18:08:28;;;;;;;;;;;19.10;99.90;;;17.65;100.00;95548.28;10439810;28;1159;-81
2021/07/26 18:13:31;;;;;;;;;;;18.70;99.90;;;17.38;100.00;95550.25;10439644;28;2076;-82
2021/07/26 18:18:34;;;;;;;;;;;18.40;99.90;;;17.07;100.00;95564.03;10458637;28;1463;-83
2021/07/26 18:23:39;;;;;;;;;;;18.10;99.90;;;16.74;100.00;95575.34;10440519;28;1480;-81
2021/07/26 18:28:42;;;;;;;;;;;17.70;99.90;;;16.38;100.00;95582.88;10450206;28;1584;-80
2021/07/26 18:33:45;;;;;;;;;;;17.40;99.90;;;16.25;100.00;95589.22;10439011;28;1883;-82
2021/07/26 18:38:48;;;;;;;;;;;17.20;99.90;;;16.09;100.00;95543.53;10430420;28;1599;-81
2021/07/26 18:43:51;;;;;;;;;;;17.00;99.90;;;15.95;100.00;95580.81;10429614;28;1526;-82
2021/07/26 18:48:54;;;;;;;;;;;16.80;99.90;;;16.08;100.00;95590.75;10415458;28;2391;-81
2021/07/26 18:53:56;;;;;;;;;;;16.90;99.90;;;16.15;100.00;95607.38;10410638;28;2354;-81
2021/07/26 18:58:59;;;;;;;;;;;16.90;99.90;;;16.04;100.00;95576.22;10424647;28;2347;-79
2021/07/26 19:04:02;;;;;;;;;;;16.90;99.90;;;15.93;100.00;95559.44;10428373;28;2372;-81
2021/07/26 19:09:06;;;;;;;;;;;16.80;99.90;;;16.09;100.00;95583.41;10421713;28;2316;-80
2021/07/26 19:14:09;;;;;;;;;;;16.80;99.90;;;16.72;100.00;95591.13;10410007;28;2321;-80
2021/07/26 19:19:13;;;;;;;;;;;17.20;99.90;;;17.33;100.00;95584.94;10420010;28;2844;-79
2021/07/26 19:24:15;;;;;;;;;;;17.70;99.90;;;17.36;100.00;95573.41;10416013;28;2738;-80
2021/07/26 19:29:18;;;;;;;;;;;17.90;99.90;;;17.25;100.00;95581.91;10427092;28;2361;-82
2021/07/26 19:34:21;;;;;;;;;;;18.00;99.90;;;17.02;100.00;95586.69;10424696;28;2366;-81
2021/07/26 19:39:25;;;;;;;;;;;17.90;99.90;;;16.94;100.00;95587.50;10422861;28;2330;-82
2021/07/26 19:44:27;;;;;;;;;;;17.80;99.90;;;17.05;100.00;95598.84;10418798;28;2376;-81
2021/07/26 19:49:31;;;;;;;;;;;17.80;99.90;;;17.31;100.00;95627.94;10419991;28;2424;-82
2021/07/26 19:54:33;;;;;;;;;;;18.00;99.90;;;17.29;100.00;95631.75;10416277;28;2521;-81
2021/07/26 19:59:36;;;;;;;;;;;18.00;99.90;;;17.50;100.00;95633.84;10429007;28;2286;-81
2021/07/26 20:04:39;;;;;;;;;;;18.10;99.90;;;17.54;100.00;95659.25;10432587;28;2707;-79
2021/07/26 20:09:42;;;;;;;;;;;18.20;99.90;;;17.18;100.00;95670.44;10435834;28;2075;-81
2021/07/26 20:14:44;;;;;;;;;;;18.20;99.90;;;17.04;100.00;95659.69;10436169;28;2091;-82
2021/07/26 20:19:48;;;;;;;;;;;18.00;99.90;;;17.06;100.00;95667.53;10432814;28;2249;-80
2021/07/26 20:24:51;;;;;;;;;;;18.10;99.90;;;17.24;100.00;95666.41;10438231;28;2504;-80
2021/07/26 20:29:56;;;;;;;;;;;18.00;99.90;;;17.48;100.00;95677.63;10429082;28;2222;-81
2021/07/26 20:34:58;;;;;;;;;;;18.20;99.90;;;17.60;100.00;95674.28;10421210;28;2337;-80
2021/07/26 20:40:01;;;;;;;;;;;18.30;99.90;;;17.73;100.00;95680.69;10426924;28;2069;-80
2021/07/26 20:45:04;;;;;;;;;;;18.50;99.90;;;17.75;100.00;95679.25;10428555;28;2215;-81
2021/07/26 20:50:06;;;;;;;;;;;18.50;99.90;;;17.90;100.00;95677.97;10417977;28;2337;-80
2021/07/26 20:55:09;;;;;;;;;;;18.50;99.90;;;17.93;100.00;95662.91;10417231;28;2456;-81
2021/07/26 21:00:12;;;;;;;;;;;18.70;99.90;;;17.71;100.00;95667.44;10418682;28;2219;-80
2021/07/26 21:05:15;;;;;;;;;;;18.60;99.90;;;17.76;100.00;95667.25;10429159;28;2358;-81
2021/07/26 21:10:17;;;;;;;;;;;18.60;99.90;;;17.86;100.00;95668.03;10415653;28;2298;-78
2021/07/26 21:15:27;;;;;;;;;;;18.60;99.90;;;17.94;100.00;95678.09;10432497;28;1905;-79
2021/07/26 21:20:30;;;;;;;;;;;18.70;99.90;;;18.06;100.00;95678.22;10423886;28;2821;-80
2021/07/26 21:25:32;;;;;;;;;;;18.70;99.90;;;17.92;100.00;95693.94;10413055;28;2241;-81
2021/07/26 21:30:35;;;;;;;;;;;18.80;99.90;;;18.08;100.00;95686.88;10423117;28;2248;-82
2021/07/26 21:35:38;;;;;;;;;;;18.80;99.90;;;17.82;100.00;95674.13;10404378;28;2263;-80
2021/07/26 21:40:40;;;;;;;;;;;18.80;99.90;;;17.88;100.00;95676.66;10421083;28;2282;-83
2021/07/26 21:45:43;;;;;;;;;;;18.70;99.90;;;17.84;100.00;95676.53;10408903;28;2504;-82
2021/07/26 21:50:46;;;;;;;;;;;18.70;99.90;;;17.71;100.00;95678.28;10413767;28;2353;-81
2021/07/26 21:55:49;;;;;;;;;;;18.60;99.90;;;17.62;100.00;95676.66;10411251;28;2293;-79
2021/07/26 22:00:51;;;;;;;;;;;18.50;99.90;;;17.56;100.00;95676.84;10409273;28;2310;-79
2021/07/26 22:05:54;;;;;;;;;;;18.50;99.90;;;17.50;100.00;95677.31;10413276;28;2359;-81
2021/07/26 22:10:57;;;;;;;;;;;18.50;99.90;;;17.32;100.00;95671.09;10407922;28;2338;-81
2021/07/26 22:16:00;;;;;;;;;;;18.30;99.90;;;17.28;100.00;95661.97;10415018;28;2334;-83
2021/07/26 22:21:03;;;;;;;;;;;18.20;99.90;;;17.28;100.00;95668.19;10420862;28;2222;-82
2021/07/26 22:26:05;;;;;;;;;;;18.20;99.90;;;17.12;100.00;95675.22;10422228;28;2305;-80
2021/07/26 22:31:08;;;;;;;;;;;18.10;99.90;;;17.11;100.00;95670.88;10404957;28;2270;-82
2021/07/26 22:36:11;;;;;;;;;;;18.10;99.90;;;16.98;100.00;95663.66;10416351;28;2377;-82
2021/07/26 22:41:13;;;;;;;;;;;18.00;99.90;;;16.88;100.00;95675.63;10414674;28;2349;-81
2021/07/26 22:46:16;;;;;;;;;;;17.90;99.90;;;17.15;100.00;95676.50;10417414;28;1883;-80
2021/07/26 22:51:19;;;;;;;;;;;17.90;99.90;;;17.21;100.00;95686.88;10414722;28;2278;-82
2021/07/26 22:56:22;;;;;;;;;;;18.00;99.90;;;17.11;100.00;95684.44;10416218;28;2254;-81
2021/07/26 23:01:24;;;;;;;;;;;18.00;99.90;;;17.14;100.00;95683.84;10419783;28;2290;-81
2021/07/26 23:06:27;;;;;;;;;;;18.00;99.90;;;17.05;100.00;95688.47;10419332;28;4288;-82
2021/07/26 23:11:30;;;;;;;;;;;18.00;99.90;;;17.01;100.00;95679.34;10423716;28;2367;-82
2021/07/26 23:16:33;;;;;;;;;;;17.90;99.90;;;16.96;100.00;95674.06;10416676;28;1861;-82
2021/07/26 23:21:35;;;;;;;;;;;17.90;99.90;;;16.84;100.00;95679.28;10422298;28;2265;-82
2021/07/26 23:26:38;;;;;;;;;;;17.80;99.90;;;16.80;100.00;95671.00;10420292;28;2227;-82
2021/07/26 23:31:41;;;;;;;;;;;17.70;99.90;;;16.69;100.00;95670.44;10427704;28;2371;-80
2021/07/26 23:36:43;;;;;;;;;;;17.70;99.90;;;16.65;100.00;95665.97;10408200;28;2391;-82
2021/07/26 23:41:47;;;;;;;;;;;17.60;99.90;;;16.46;100.00;95653.44;10433486;28;2329;-80